Time;durP1;ratioP1;P1;durP2;ratioP2;P2;SDS_P1;SDS_P2;PMS_P1;PMS_P2;Temp;Humidity;BMP_temperature;BMP_pressure;BME280_temperature;BME280_humidity;BME280_pressure;Samples;Min_cycle;Max_cycle;Signal;HPM_P1;HPM_P2
2022/01/18 00:00:28;;;;;;;15.73;12.13;;;;;;;4.18;100.00;99916.00;5058477;28;20477;-69
2022/01/18 00:02:57;;;;;;;14.90;12.10;;;;;;;4.19;100.00;99908.94;5058405;28;20197;-69
2022/01/18 00:05:23;;;;;;;13.60;11.20;;;;;;;4.23;100.00;99911.19;5058073;28;20201;-69
2022/01/18 00:07:50;;;;;;;16.00;11.83;;;;;;;4.24;100.00;99912.00;5058259;28;20229;-69
2022/01/18 00:10:16;;;;;;;15.43;11.57;;;;;;;4.28;100.00;99913.41;5058311;28;20196;-69
2022/01/18 00:15:39;;;;;;;15.57;11.83;;;;;;;4.33;99.95;99911.19;5045143;28;20209;-69
2022/01/18 00:18:08;;;;;;;15.17;11.23;;;;;;;4.29;100.00;99920.34;5058091;28;20217;-69
2022/01/18 00:21:11;;;;;;;14.60;11.87;;;;;;;4.32;100.00;99923.53;5058103;28;20197;-69
2022/01/18 00:23:40;;;;;;;16.23;11.63;;;;;;;4.31;100.00;99923.66;5058082;28;20185;-69
2022/01/18 00:26:09;;;;;;;14.90;11.80;;;;;;;4.34;99.94;99933.94;5058060;28;20549;-69
2022/01/18 00:28:36;;;;;;;15.30;12.17;;;;;;;4.33;100.00;99929.63;5057884;28;20227;-69
2022/01/18 00:34:03;;;;;;;13.90;11.17;;;;;;;4.37;100.00;99938.91;5033128;28;20229;-69
2022/01/18 00:36:37;;;;;;;14.70;11.50;;;;;;;4.39;99.60;99943.09;5057441;28;20599;-69
2022/01/18 00:39:06;;;;;;;15.60;12.30;;;;;;;4.37;100.00;99936.28;5057770;28;20224;-69
2022/01/18 00:41:33;;;;;;;16.00;11.73;;;;;;;4.32;100.00;99949.03;5057612;28;20372;-69
2022/01/18 00:43:59;;;;;;;16.70;11.97;;;;;;;4.31;100.00;99947.38;5057574;28;20193;-69
2022/01/18 00:46:26;;;;;;;15.27;11.73;;;;;;;4.30;100.00;99948.34;5057188;28;20581;-69
2022/01/18 00:48:55;;;;;;;14.50;11.47;;;;;;;4.33;100.00;99940.16;5057246;28;20204;-69
2022/01/18 00:51:21;;;;;;;14.57;12.17;;;;;;;4.35;100.00;99952.25;5057515;28;20204;-69
2022/01/18 00:53:48;;;;;;;13.30;11.33;;;;;;;4.46;99.99;99943.38;5057363;28;20224;-69
2022/01/18 00:56:22;;;;;;;14.97;11.33;;;;;;;4.43;99.46;99949.75;5057433;28;20524;-70
2022/01/18 00:58:51;;;;;;;16.73;12.17;;;;;;;4.38;100.00;99948.50;5057429;28;20224;-69
2022/01/18 01:01:19;;;;;;;14.57;12.23;;;;;;;4.40;99.25;99947.41;5057269;28;20229;-69
2022/01/18 01:03:46;;;;;;;14.97;12.10;;;;;;;4.47;98.57;99948.53;5057311;28;20189;-69
2022/01/18 01:06:13;;;;;;;15.40;11.03;;;;;;;4.58;98.11;99944.94;5056863;28;20515;-69
2022/01/18 01:08:39;;;;;;;16.67;11.73;;;;;;;4.52;100.00;99950.75;5057088;28;20224;-69
2022/01/18 01:11:08;;;;;;;13.37;11.27;;;;;;;4.49;99.54;99954.50;5057157;28;20216;-70
2022/01/18 01:13:37;;;;;;;14.10;11.33;;;;;;;4.48;98.58;99950.19;5057036;28;20221;-69
2022/01/18 01:16:19;;;;;;;13.73;11.60;;;;;;;4.53;98.74;99952.41;5057013;28;20300;-69
2022/01/18 01:18:48;;;;;;;14.73;12.33;;;;;;;4.50;98.81;99955.31;5056740;28;20581;-69
2022/01/18 01:32:28;;;;;;;15.07;12.23;;;;;;;4.55;98.83;99969.75;5056718;28;20168;-70
2022/01/18 01:35:03;;;;;;;15.93;12.00;;;;;;;4.66;98.51;99974.09;5056864;28;20307;-70
2022/01/18 01:43:11;;;;;;;15.47;11.53;;;;;;;4.54;99.43;99976.00;5056498;28;20279;-69
2022/01/18 01:45:38;;;;;;;15.50;12.10;;;;;;;4.57;97.53;99977.53;5057196;28;20186;-69
2022/01/18 01:48:05;;;;;;;17.30;12.93;;;;;;;4.56;98.56;99978.50;5056486;28;20520;-70
2022/01/18 01:50:42;;;;;;;16.47;12.80;;;;;;;4.64;98.34;99984.75;5056218;28;20613;-69
2022/01/18 01:53:09;;;;;;;15.73;13.13;;;;;;;4.55;98.59;99985.56;5056481;28;20220;-69
2022/01/18 01:55:35;;;;;;;16.87;12.93;;;;;;;4.62;98.52;100002.47;5055811;28;20212;-69
2022/01/18 01:58:02;;;;;;;16.23;12.90;;;;;;;4.49;99.01;99999.28;5056272;28;20229;-69
2022/01/18 02:00:28;;;;;;;15.77;12.63;;;;;;;4.60;98.32;99999.16;5056326;28;20500;-69
2022/01/18 02:02:55;;;;;;;16.23;13.63;;;;;;;4.61;98.05;99989.47;5056309;28;20228;-69
2022/01/18 02:05:22;;;;;;;16.70;13.33;;;;;;;4.28;100.00;99997.66;5056402;28;20480;-69
2022/01/18 02:07:49;;;;;;;17.00;13.77;;;;;;;4.29;100.00;99986.97;5056314;28;20308;-69
2022/01/18 02:10:16;;;;;;;16.87;12.73;;;;;;;4.34;100.00;99989.25;5056421;28;20193;-69
2022/01/18 02:12:42;;;;;;;17.20;13.60;;;;;;;4.36;99.31;99984.66;5056043;28;20205;-69
2022/01/18 02:15:13;;;;;;;18.63;13.57;;;;;;;4.34;99.62;99989.25;5056250;28;20225;-69
2022/01/18 02:23:19;;;;;;;19.33;13.37;;;;;;;4.43;99.79;99985.81;5056372;28;20168;-69
2022/01/18 02:25:46;;;;;;;16.90;12.90;;;;;;;4.39;99.63;99979.13;5055865;28;20198;-69
2022/01/18 02:28:13;;;;;;;16.03;13.70;;;;;;;4.56;99.02;99975.88;5056184;28;20224;-69
2022/01/18 02:30:40;;;;;;;16.17;12.73;;;;;;;4.40;98.55;99978.16;5056227;28;20190;-69
2022/01/18 02:33:06;;;;;;;17.37;13.63;;;;;;;4.39;98.59;99984.41;5056077;28;20201;-69
2022/01/18 02:35:34;;;;;;;16.13;13.63;;;;;;;4.50;99.24;99989.56;5056114;28;20201;-69
2022/01/18 02:38:00;;;;;;;17.83;13.53;;;;;;;4.41;100.00;99987.72;5056094;28;20248;-69
2022/01/18 02:40:27;;;;;;;17.50;14.10;;;;;;;4.34;100.00;99986.59;5056078;28;20515;-70
2022/01/18 02:43:00;;;;;;;19.90;14.53;;;;;;;4.35;100.00;99986.47;5055797;28;20209;-69
2022/01/18 02:45:27;;;;;;;16.40;13.43;;;;;;;4.43;99.03;99991.06;5055735;28;20192;-69
2022/01/18 02:47:54;;;;;;;18.10;14.20;;;;;;;4.28;99.52;99987.13;5055588;28;20684;-69
2022/01/18 02:50:22;;;;;;;19.97;14.77;;;;;;;4.35;99.32;99985.63;5055661;28;20608;-69
2022/01/18 02:52:49;;;;;;;19.80;14.60;;;;;;;4.29;99.90;99986.16;5056030;28;20240;-69
2022/01/18 02:55:15;;;;;;;17.20;13.73;;;;;;;4.23;100.00;99984.03;5055841;28;20227;-69
2022/01/18 02:57:54;;;;;;;17.00;13.77;;;;;;;4.24;100.00;99978.66;5055851;28;20233;-70
2022/01/18 03:00:28;;;;;;;17.07;14.53;;;;;;;4.19;100.00;99977.38;5056444;28;20491;-69
2022/01/18 03:03:13;;;;;;;18.23;14.13;;;;;;;4.13;100.00;99978.75;5055933;28;20200;-69
2022/01/18 03:05:46;;;;;;;17.80;13.87;;;;;;;4.17;100.00;99977.53;5055564;28;20181;-69
2022/01/18 03:08:15;;;;;;;18.63;14.63;;;;;;;4.11;100.00;99970.16;5056575;28;20225;-69
2022/01/18 03:10:42;;;;;;;17.80;14.20;;;;;;;4.14;100.00;99972.53;5059374;28;20624;-69
2022/01/18 03:13:08;;;;;;;19.63;14.70;;;;;;;4.12;100.00;99965.72;5058994;28;20203;-69
2022/01/18 03:15:36;;;;;;;17.43;14.27;;;;;;;4.06;100.00;99976.75;5059383;28;20205;-69
2022/01/18 03:18:06;;;;;;;21.03;16.07;;;;;;;4.13;100.00;99970.88;5059246;28;20232;-69
2022/01/18 03:20:33;;;;;;;20.30;14.53;;;;;;;4.10;100.00;99971.13;5059309;28;20229;-69
2022/01/18 03:22:59;;;;;;;18.03;14.40;;;;;;;4.13;100.00;99970.00;5058889;28;20617;-69
2022/01/18 03:25:29;;;;;;;20.27;14.93;;;;;;;4.14;100.00;99969.88;5058896;28;20600;-69
2022/01/18 03:28:06;;;;;;;17.40;14.93;;;;;;;4.21;100.00;99972.81;5059035;28;20222;-69
2022/01/18 03:30:42;;;;;;;20.80;14.33;;;;;;;4.35;100.00;99972.47;5059117;28;20196;-69
2022/01/18 03:33:12;;;;;;;19.80;14.93;;;;;;;4.39;99.13;99979.13;5058714;28;20584;-69
2022/01/18 03:35:39;;;;;;;18.70;14.30;;;;;;;4.45;99.18;99973.31;5058968;28;20206;-69
2022/01/18 03:38:06;;;;;;;20.47;16.03;;;;;;;4.37;99.80;99975.78;5058874;28;20300;-69
2022/01/18 03:40:33;;;;;;;20.93;15.07;;;;;;;4.39;100.00;99972.03;5058924;28;20204;-69
2022/01/18 03:43:01;;;;;;;20.27;15.37;;;;;;;4.32;100.00;99967.47;5058500;28;20223;-69
2022/01/18 03:45:32;;;;;;;19.73;14.97;;;;;;;4.30;100.00;99972.03;5058447;28;20208;-69
2022/01/18 03:48:03;;;;;;;20.40;16.00;;;;;;;4.22;100.00;99971.84;5058357;28;20670;-69
2022/01/18 03:50:30;;;;;;;22.93;15.67;;;;;;;4.35;100.00;99972.47;5059258;28;20193;-69
2022/01/18 03:52:57;;;;;;;21.57;15.40;;;;;;;4.20;100.00;99971.97;5058502;28;20200;-69
2022/01/18 03:55:24;;;;;;;19.50;15.17;;;;;;;4.20;100.00;99982.50;5058248;28;20216;-69
2022/01/18 03:57:50;;;;;;;18.33;14.80;;;;;;;4.24;100.00;99986.56;5058134;28;20221;-69
2022/01/18 04:00:20;;;;;;;19.17;15.60;;;;;;;4.22;100.00;99977.13;5058257;28;20204;-69
2022/01/18 04:02:46;;;;;;;21.10;15.73;;;;;;;4.23;100.00;99984.03;5058361;28;20508;-69
2022/01/18 04:05:13;;;;;;;23.43;15.77;;;;;;;4.28;100.00;99992.38;5058361;28;20192;-70
2022/01/18 04:07:40;;;;;;;21.50;15.40;;;;;;;4.22;100.00;99987.66;5057925;28;20225;-68
2022/01/18 04:10:08;;;;;;;20.17;15.70;;;;;;;4.17;100.00;99989.84;5058356;28;20196;-69
2022/01/18 04:12:35;;;;;;;22.27;17.30;;;;;;;4.16;100.00;99996.91;5058149;28;20216;-69
2022/01/18 04:15:04;;;;;;;21.37;16.77;;;;;;;4.16;100.00;99996.09;5058026;28;20283;-70
2022/01/18 04:17:51;;;;;;;22.20;15.30;;;;;;;4.31;100.00;100002.66;5058055;28;20225;-69
2022/01/18 04:25:55;;;;;;;21.23;16.40;;;;;;;4.09;100.00;100002.81;5057656;28;20280;-69
2022/01/18 04:28:34;;;;;;;22.33;16.97;;;;;;;4.05;100.00;100006.69;5057827;28;20225;-69
2022/01/18 04:31:00;;;;;;;20.03;14.90;;;;;;;4.12;100.00;100010.47;5057780;28;20243;-69
2022/01/18 04:33:27;;;;;;;20.70;15.80;;;;;;;4.12;100.00;100002.56;5057789;28;20216;-69
2022/01/18 04:35:53;;;;;;;21.33;16.33;;;;;;;4.22;100.00;99999.03;5057591;28;20182;-69
2022/01/18 04:38:19;;;;;;;22.83;16.00;;;;;;;4.21;100.00;100009.69;5057125;28;20652;-69
2022/01/18 04:40:47;;;;;;;21.90;16.43;;;;;;;4.23;100.00;100005.09;5057012;28;20520;-69
2022/01/18 04:43:19;;;;;;;24.03;17.30;;;;;;;4.28;100.00;100014.28;5056979;28;20219;-69
2022/01/18 04:48:32;;;;;;;24.57;16.53;;;;;;;4.25;100.00;100017.16;5057150;28;20236;-69
2022/01/18 04:51:09;;;;;;;23.47;16.70;;;;;;;4.38;99.93;100024.88;5057355;28;20296;-69
2022/01/18 04:53:47;;;;;;;25.07;16.53;;;;;;;4.25;100.00;100019.00;5057678;28;20176;-69
2022/01/18 04:56:16;;;;;;;24.00;16.67;;;;;;;4.24;99.92;100019.94;5057214;28;20276;-69
2022/01/18 04:58:42;;;;;;;22.13;17.10;;;;;;;4.20;100.00;100016.72;5057167;28;20291;-69
2022/01/18 05:01:10;;;;;;;25.20;16.67;;;;;;;4.25;100.00;100013.72;5056864;28;20557;-69
2022/01/18 05:03:37;;;;;;;22.77;16.07;;;;;;;4.25;99.64;100029.53;5056676;28;20201;-69
2022/01/18 05:06:08;;;;;;;21.83;16.50;;;;;;;4.20;100.00;100029.91;5056981;28;20203;-69
2022/01/18 05:08:36;;;;;;;27.17;18.20;;;;;;;4.32;100.00;100018.31;5056968;28;20234;-69
2022/01/18 05:11:02;;;;;;;26.20;17.33;;;;;;;4.27;100.00;100019.69;5056955;28;20262;-69
2022/01/18 05:13:50;;;;;;;25.37;16.20;;;;;;;4.35;99.25;100025.13;5056785;28;20201;-69
2022/01/18 05:16:30;;;;;;;21.57;16.30;;;;;;;4.50;99.04;100019.38;5056934;28;20259;-69
2022/01/18 05:19:08;;;;;;;22.33;16.27;;;;;;;4.36;98.51;100019.72;5056724;28;20217;-69
2022/01/18 05:22:56;;;;;;;25.93;17.60;;;;;;;4.35;98.04;100025.13;5056618;28;20276;-69
2022/01/18 05:24:30;;;;;;;24.17;17.40;;;;;;;4.32;98.85;100020.13;5056245;28;20201;-69
2022/01/18 05:26:57;;;;;;;24.80;17.27;;;;;;;4.15;99.51;100029.47;5056556;28;20220;-68
2022/01/18 05:29:24;;;;;;;22.40;16.53;;;;;;;4.36;99.68;100024.16;5056277;28;20197;-69
2022/01/18 05:31:50;;;;;;;28.03;17.60;;;;;;;4.26;99.23;100026.75;5055888;28;20216;-69
2022/01/18 05:34:17;;;;;;;26.57;18.57;;;;;;;4.42;98.88;100023.63;5056294;28;20206;-69
2022/01/18 05:36:44;;;;;;;25.50;16.83;;;;;;;4.50;98.04;100029.06;5056044;28;20228;-69
2022/01/18 05:39:11;;;;;;;26.23;17.53;;;;;;;4.45;98.09;100036.53;5056246;28;20186;-69
2022/01/18 05:41:39;;;;;;;25.40;18.20;;;;;;;4.30;98.84;100032.59;5055941;28;20201;-69
2022/01/18 05:44:06;;;;;;;24.97;18.37;;;;;;;4.25;99.47;100032.97;5056052;28;20196;-69
2022/01/18 05:46:33;;;;;;;25.50;18.27;;;;;;;4.27;98.56;100038.09;5056719;28;20193;-69
2022/01/18 05:49:01;;;;;;;25.60;18.90;;;;;;;4.19;98.91;100036.13;5055920;28;20228;-69
2022/01/18 05:51:28;;;;;;;28.80;18.77;;;;;;;4.01;99.53;100032.44;5055970;28;20211;-70
2022/01/18 05:53:54;;;;;;;28.47;18.37;;;;;;;3.99;100.00;100031.75;5055857;28;20192;-69
2022/01/18 05:56:21;;;;;;;28.03;19.80;;;;;;;3.89;100.00;100024.75;5055755;28;20197;-69
2022/01/18 05:58:49;;;;;;;28.73;18.13;;;;;;;4.02;100.00;100036.72;5055571;28;20595;-69
2022/01/18 06:01:24;;;;;;;29.57;18.67;;;;;;;4.08;99.81;100038.84;5055811;28;20274;-69
2022/01/18 06:04:05;;;;;;;27.70;20.00;;;;;;;3.99;100.00;100037.00;5055566;28;20545;-69
2022/01/18 06:09:15;;;;;;;28.83;19.80;;;;;;;3.85;100.00;100037.31;5055965;28;20173;-70
2022/01/18 06:11:42;;;;;;;27.10;19.83;;;;;;;3.99;100.00;100041.44;5055819;28;20248;-70
2022/01/18 06:14:08;;;;;;;28.03;18.90;;;;;;;4.07;100.00;100036.34;5055256;28;20208;-71
2022/01/18 06:16:35;;;;;;;30.53;19.23;;;;;;;4.17;99.85;100037.22;5055686;28;20197;-69
2022/01/18 06:19:01;;;;;;;29.70;19.90;;;;;;;4.15;100.00;100040.00;5055177;28;20251;-69
2022/01/18 06:21:28;;;;;;;29.43;19.43;;;;;;;3.97;100.00;100032.84;5055932;28;20186;-70
2022/01/18 06:23:54;;;;;;;28.97;20.73;;;;;;;3.88;100.00;100042.31;5055419;28;20189;-69
2022/01/18 06:26:20;;;;;;;30.03;20.53;;;;;;;3.89;100.00;100041.34;5055379;28;20194;-69
2022/01/18 06:28:47;;;;;;;29.93;19.93;;;;;;;3.98;100.00;100040.56;5055222;28;20198;-69
2022/01/18 06:31:14;;;;;;;28.53;19.60;;;;;;;4.02;100.00;100049.06;5055883;28;20193;-70
2022/01/18 06:33:40;;;;;;;28.93;20.40;;;;;;;3.98;100.00;100042.38;5055111;28;20620;-69
2022/01/18 06:36:07;;;;;;;34.83;19.87;;;;;;;4.12;99.70;100050.78;5055203;28;20221;-69
2022/01/18 06:38:33;;;;;;;30.07;19.53;;;;;;;4.00;100.00;100056.25;5054879;28;20652;-69
2022/01/18 06:41:00;;;;;;;32.90;21.57;;;;;;;4.06;100.00;100050.44;5056012;28;20676;-69
2022/01/18 06:43:27;;;;;;;28.07;19.53;;;;;;;4.10;99.68;100063.25;5057752;28;20635;-69
2022/01/18 06:45:53;;;;;;;31.43;20.23;;;;;;;4.04;100.00;100069.03;5059108;28;20190;-69
2022/01/18 06:48:19;;;;;;;30.20;19.93;;;;;;;4.07;99.67;100070.56;5059105;28;20229;-69
2022/01/18 06:50:46;;;;;;;29.40;20.63;;;;;;;4.05;100.00;100070.69;5059378;28;20197;-69
2022/01/18 06:53:12;;;;;;;31.17;20.17;;;;;;;4.09;100.00;100076.53;5060083;28;20212;-70
2022/01/18 06:55:39;;;;;;;29.43;20.37;;;;;;;4.08;100.00;100075.72;5059051;28;20521;-69
2022/01/18 06:58:05;;;;;;;28.67;19.27;;;;;;;4.10;100.00;100084.31;5059203;28;20248;-69
2022/01/18 07:00:31;;;;;;;30.80;19.40;;;;;;;4.17;98.99;100084.63;5058762;28;20508;-69
2022/01/18 07:02:58;;;;;;;28.83;19.37;;;;;;;4.19;98.91;100087.94;5058703;28;20284;-70
2022/01/18 07:05:24;;;;;;;30.53;18.93;;;;;;;4.12;98.26;100084.19;5059097;28;20185;-69
2022/01/18 07:07:50;;;;;;;26.93;17.80;;;;;;;4.11;99.55;100085.97;5058869;28;20217;-69
2022/01/18 07:10:17;;;;;;;29.63;18.47;;;;;;;4.10;98.96;100086.09;5058992;28;20220;-69
2022/01/18 07:12:43;;;;;;;25.97;18.53;;;;;;;3.99;99.47;100083.53;5058829;28;20201;-69
2022/01/18 07:15:10;;;;;;;29.30;19.13;;;;;;;4.09;99.03;100077.38;5058846;28;20225;-69
2022/01/18 07:17:37;;;;;;;24.30;17.83;;;;;;;4.09;99.57;100085.25;5058577;28;20644;-70
2022/01/18 07:20:05;;;;;;;28.20;20.13;;;;;;;3.94;99.73;100078.63;5058556;28;20197;-70
2022/01/18 07:22:31;;;;;;;29.83;18.97;;;;;;;4.06;99.11;100084.66;5058792;28;20200;-70
2022/01/18 07:24:59;;;;;;;27.77;19.73;;;;;;;4.11;98.03;100093.84;5058763;28;20185;-70
2022/01/18 07:27:25;;;;;;;25.83;18.13;;;;;;;4.17;98.10;100092.50;5058549;28;20300;-70
2022/01/18 07:29:52;;;;;;;27.27;17.60;;;;;;;4.19;97.69;100088.78;5068680;28;20520;-71
2022/01/18 07:32:20;;;;;;;27.77;18.43;;;;;;;4.22;97.71;100092.97;5068161;28;20198;-71
2022/01/18 07:34:53;;;;;;;26.00;18.60;;;;;;;4.13;98.11;100096.38;5066591;28;20208;-70
2022/01/18 07:37:21;;;;;;;29.17;18.57;;;;;;;4.20;97.30;100095.72;5067524;28;20223;-71
2022/01/18 07:39:49;;;;;;;31.37;19.03;;;;;;;4.17;97.34;100097.78;5069024;28;20268;-70
2022/01/18 07:42:17;;;;;;;26.73;16.80;;;;;;;4.14;97.69;100098.88;5067311;28;20209;-72
2022/01/18 07:44:44;;;;;;;28.03;18.00;;;;;;;4.17;97.56;100108.31;5066571;28;20619;-71
2022/01/18 07:47:10;;;;;;;24.77;17.97;;;;;;;4.16;97.54;100110.09;5075451;28;20236;-70
2022/01/18 07:49:37;;;;;;;26.87;17.37;;;;;;;4.25;98.00;100113.78;5078353;28;20201;-70
2022/01/18 07:52:03;;;;;;;26.87;16.57;;;;;;;4.29;97.13;100121.28;5078232;28;20226;-70
2022/01/18 07:54:30;;;;;;;26.87;17.97;;;;;;;4.19;97.46;100115.13;5077129;28;20204;-70
2022/01/18 07:56:56;;;;;;;22.57;16.80;;;;;;;4.21;97.77;100125.53;5078283;28;20220;-71
2022/01/18 07:59:23;;;;;;;28.93;17.60;;;;;;;4.11;99.45;100120.19;5078198;28;20209;-70
2022/01/18 08:01:49;;;;;;;27.10;18.80;;;;;;;4.24;99.41;100123.47;5078237;28;20200;-70
2022/01/18 08:04:16;;;;;;;27.33;18.47;;;;;;;4.22;99.00;100124.56;5077882;28;20208;-70
2022/01/18 08:06:42;;;;;;;26.97;18.57;;;;;;;4.28;99.53;100131.91;5077693;28;20216;-71
2022/01/18 08:09:08;;;;;;;26.00;18.90;;;;;;;4.23;99.94;100123.59;5077977;28;20209;-70
2022/01/18 08:11:35;;;;;;;26.23;18.37;;;;;;;4.40;99.55;100134.38;5077664;28;20209;-70
2022/01/18 08:14:02;;;;;;;27.10;16.80;;;;;;;4.44;98.43;100124.41;5078208;28;20193;-70
2022/01/18 08:16:47;;;;;;;23.47;17.63;;;;;;;4.39;98.49;100126.59;5077527;28;20216;-70
2022/01/18 08:19:13;;;;;;;24.07;16.90;;;;;;;4.56;96.88;100121.56;5077772;28;20204;-70
2022/01/18 08:21:40;;;;;;;24.13;17.27;;;;;;;4.27;97.04;100125.00;5077609;28;20600;-70
2022/01/18 08:24:06;;;;;;;22.77;16.77;;;;;;;4.23;97.08;100131.47;5077508;28;20604;-70
2022/01/18 08:26:33;;;;;;;25.73;17.97;;;;;;;4.17;97.54;100132.84;5077612;28;20192;-70
2022/01/18 08:28:59;;;;;;;26.30;17.00;;;;;;;4.18;97.76;100131.88;5077495;28;20283;-71
2022/01/18 08:31:26;;;;;;;21.47;16.00;;;;;;;4.23;98.00;100131.47;5077182;28;20616;-71
2022/01/18 08:33:52;;;;;;;22.80;15.67;;;;;;;4.35;95.88;100136.56;5076892;28;20189;-70
2022/01/18 08:36:19;;;;;;;26.40;17.13;;;;;;;4.50;95.91;100134.41;5077193;28;20220;-70
2022/01/18 08:38:46;;;;;;;22.63;15.97;;;;;;;4.47;94.94;100134.69;5077300;28;20251;-71
2022/01/18 08:41:12;;;;;;;21.90;15.67;;;;;;;4.45;95.23;100133.97;5077024;28;20208;-70
2022/01/18 08:43:39;;;;;;;21.40;16.93;;;;;;;4.45;95.11;100133.97;5076909;28;20223;-70
2022/01/18 08:46:06;;;;;;;22.30;15.00;;;;;;;4.66;94.29;100129.53;5076875;28;20204;-71
2022/01/18 08:48:32;;;;;;;23.37;15.80;;;;;;;4.31;95.68;100136.94;5077302;28;20231;-70
2022/01/18 08:50:59;;;;;;;21.20;15.37;;;;;;;4.44;96.10;100132.31;5076893;28;20608;-70
2022/01/18 08:53:26;;;;;;;24.30;16.27;;;;;;;4.64;94.18;100144.59;5076824;28;20620;-70
2022/01/18 08:55:53;;;;;;;21.20;15.37;;;;;;;4.66;93.93;100135.59;5077164;28;20225;-70
2022/01/18 08:58:21;;;;;;;23.07;16.43;;;;;;;4.95;93.98;100141.84;5077014;28;20252;-70
2022/01/18 09:00:48;;;;;;;21.67;16.40;;;;;;;4.89;95.20;100137.09;5076680;28;20570;-71
2022/01/18 09:03:14;;;;;;;23.33;15.00;;;;;;;4.96;92.68;100140.03;5076826;28;20492;-71
2022/01/18 09:05:43;;;;;;;21.43;15.57;;;;;;;4.83;93.34;100136.78;5076904;28;20204;-71
2022/01/18 09:08:11;;;;;;;23.30;16.07;;;;;;;4.87;94.23;100133.78;5076920;28;20293;-71
2022/01/18 09:10:38;;;;;;;21.73;15.47;;;;;;;5.01;94.52;100137.84;5076670;28;20274;-71
2022/01/18 09:13:05;;;;;;;25.10;16.53;;;;;;;5.20;93.50;100130.00;5076764;28;20291;-72
2022/01/18 09:15:31;;;;;;;20.77;14.70;;;;;;;5.06;93.51;100144.38;5076488;28;20528;-71
2022/01/18 09:17:58;;;;;;;19.43;14.83;;;;;;;5.23;92.42;100149.03;5076658;28;20216;-71
2022/01/18 09:20:24;;;;;;;22.27;15.17;;;;;;;5.27;92.10;100144.31;5076236;28;20514;-71
2022/01/18 09:22:53;;;;;;;21.53;14.83;;;;;;;5.39;91.47;100146.69;5076549;28;20200;-72
2022/01/18 09:25:25;;;;;;;18.23;13.00;;;;;;;5.25;89.56;100140.97;5076103;28;20192;-71
2022/01/18 09:27:53;;;;;;;21.07;14.80;;;;;;;5.24;90.14;100140.13;5076313;28;20223;-71
2022/01/18 09:30:20;;;;;;;18.40;11.83;;;;;;;5.17;89.62;100146.09;5076261;28;20197;-71
2022/01/18 09:32:47;;;;;;;18.60;12.20;;;;;;;5.19;89.88;100152.91;5076611;28;20559;-71
2022/01/18 09:35:15;;;;;;;17.57;13.17;;;;;;;4.95;90.63;100146.28;5076347;28;20228;-71
2022/01/18 09:37:43;;;;;;;18.60;12.40;;;;;;;4.85;90.79;100146.25;5076469;28;20224;-71
2022/01/18 09:40:10;;;;;;;15.07;9.37;;;;;;;4.73;88.43;100142.03;5076415;28;20204;-70
2022/01/18 09:42:40;;;;;;;17.13;11.27;;;;;;;4.82;89.19;100148.31;5076235;28;20208;-71
2022/01/18 09:45:11;;;;;;;17.50;12.47;;;;;;;4.78;90.89;100152.16;5076432;28;20211;-71
2022/01/18 09:47:40;;;;;;;20.70;12.90;;;;;;;4.59;92.45;100154.72;5076320;28;20576;-71
2022/01/18 09:50:09;;;;;;;21.57;13.73;;;;;;;4.63;92.88;100158.75;5076269;28;20490;-70
2022/01/18 09:52:36;;;;;;;18.83;13.63;;;;;;;4.74;92.73;100163.97;5076285;28;20495;-71
2022/01/18 09:55:06;;;;;;;21.67;14.37;;;;;;;4.84;92.48;100157.75;5076199;28;20204;-71
2022/01/18 09:57:33;;;;;;;19.50;14.83;;;;;;;4.82;92.81;100157.06;5076225;28;20240;-71
2022/01/18 09:59:59;;;;;;;24.57;15.53;;;;;;;4.88;92.51;100153.88;5076691;28;20592;-71
2022/01/18 10:02:26;;;;;;;19.30;14.17;;;;;;;5.00;92.34;100155.47;5076092;28;20196;-71
2022/01/18 10:04:54;;;;;;;22.33;15.73;;;;;;;4.95;92.04;100154.19;5076122;28;20203;-70
2022/01/18 10:07:36;;;;;;;23.10;15.23;;;;;;;5.00;91.54;100149.34;5075547;28;20521;-71
2022/01/18 10:10:06;;;;;;;22.93;15.67;;;;;;;5.00;91.21;100149.34;5076486;28;20230;-71
2022/01/18 10:12:33;;;;;;;21.63;15.47;;;;;;;4.99;91.48;100143.25;5075862;28;20622;-71
2022/01/18 10:15:02;;;;;;;20.97;14.77;;;;;;;5.18;90.79;100143.31;5076118;28;20200;-70
2022/01/18 10:17:38;;;;;;;19.60;13.37;;;;;;;5.23;89.69;100135.84;5077305;28;20255;-71
2022/01/18 10:20:19;;;;;;;19.90;13.77;;;;;;;5.32;88.94;100142.09;5079991;28;20200;-70
2022/01/18 10:22:49;;;;;;;17.47;11.60;;;;;;;5.43;88.20;100136.72;5079970;28;20197;-70
2022/01/18 10:25:18;;;;;;;19.83;11.47;;;;;;;5.30;86.60;100129.03;5080525;28;20196;-71
2022/01/18 10:27:47;;;;;;;17.73;11.23;;;;;;;5.19;87.45;100130.97;5079884;28;20312;-71
2022/01/18 10:30:21;;;;;;;16.73;11.70;;;;;;;5.31;86.88;100127.25;5079656;28;20507;-70
2022/01/18 10:33:11;;;;;;;19.20;13.77;;;;;;;5.20;88.94;100119.47;5079680;28;20300;-71
2022/01/18 10:36:11;;;;;;;21.33;13.43;;;;;;;5.30;88.59;100118.50;5079179;28;20673;-71
2022/01/18 10:38:43;;;;;;;13.30;10.50;;;;;;;5.44;86.66;100123.41;5079681;28;20298;-72
2022/01/18 10:41:30;;;;;;;15.30;10.60;;;;;;;5.28;86.94;100117.81;5079474;28;20215;-71
2022/01/18 10:44:17;;;;;;;18.70;12.03;;;;;;;5.19;88.32;100121.25;5079485;28;20193;-71
2022/01/18 10:46:45;;;;;;;18.77;12.07;;;;;;;5.25;87.64;100112.78;5079173;28;20225;-71
2022/01/18 10:49:24;;;;;;;19.57;12.40;;;;;;;5.24;88.29;100116.41;5079194;28;20659;-70
2022/01/18 10:51:58;;;;;;;17.60;12.83;;;;;;;5.23;89.39;100114.75;5079303;28;20263;-71
2022/01/18 10:54:36;;;;;;;21.07;13.70;;;;;;;5.11;89.24;100115.00;5083251;22;20236;-72
2022/01/18 10:57:06;;;;;;;20.43;13.43;;;;;;;4.83;90.63;100113.06;5038654;28;20274;-73
2022/01/18 10:59:33;;;;;;;21.97;14.00;;;;;;;5.00;91.20;100109.81;5039025;28;20190;-72
2022/01/18 11:02:18;;;;;;;19.73;13.23;;;;;;;5.14;89.47;100109.44;5038922;28;20202;-72
2022/01/18 11:04:53;;;;;;;22.73;15.27;;;;;;;5.02;90.63;100098.16;5039565;28;20217;-72
2022/01/18 11:07:28;;;;;;;22.27;13.87;;;;;;;4.98;90.63;100091.50;5039097;28;20202;-72
2022/01/18 11:10:03;;;;;;;24.70;15.20;;;;;;;4.96;91.81;100090.81;5038941;28;20201;-72
2022/01/18 11:12:30;;;;;;;21.53;13.87;;;;;;;4.99;90.55;100090.53;5038455;28;20566;-72
2022/01/18 11:15:08;;;;;;;20.80;14.13;;;;;;;5.08;90.18;100084.47;5038833;28;20261;-72
2022/01/18 11:17:40;;;;;;;22.07;13.77;;;;;;;5.08;91.76;100091.53;5038740;28;20210;-72
2022/01/18 11:20:07;;;;;;;21.47;14.87;;;;;;;4.95;92.75;100070.69;5038883;28;20190;-72
2022/01/18 11:22:34;;;;;;;23.07;14.33;;;;;;;4.93;92.73;100071.78;5038558;28;20206;-72
2022/01/18 11:25:03;;;;;;;20.73;13.80;;;;;;;4.91;92.44;100065.81;5038542;28;20254;-72
2022/01/18 11:27:34;;;;;;;22.47;14.80;;;;;;;4.97;92.26;100074.00;5038352;28;20194;-72
2022/01/18 11:30:02;;;;;;;20.23;14.20;;;;;;;5.04;92.00;100074.31;5037547;28;20284;-73
2022/01/18 11:32:29;;;;;;;18.67;12.93;;;;;;;5.32;89.61;100070.88;5038641;28;20206;-72
2022/01/18 11:35:11;;;;;;;19.70;12.83;;;;;;;5.38;89.61;100071.16;5038478;28;20224;-72
2022/01/18 11:37:57;;;;;;;18.57;11.73;;;;;;;5.38;88.64;100067.72;5038482;28;20210;-73
2022/01/18 11:40:24;;;;;;;20.07;13.07;;;;;;;5.25;88.73;100075.88;5038199;28;20190;-73
2022/01/18 11:42:54;;;;;;;17.77;13.20;;;;;;;5.20;90.08;100080.72;5038064;28;20237;-73
2022/01/18 11:45:26;;;;;;;16.80;12.03;;;;;;;5.07;90.22;100074.88;5038108;28;20671;-73
2022/01/18 11:48:15;;;;;;;15.80;11.37;;;;;;;5.09;89.79;100064.19;5038195;28;20202;-73
2022/01/18 11:50:45;;;;;;;17.83;11.33;;;;;;;5.17;89.95;100062.56;5038067;28;20197;-73
2022/01/18 11:53:24;;;;;;;17.30;11.23;;;;;;;5.20;89.68;100061.44;5038440;28;20504;-73
2022/01/18 11:56:00;;;;;;;16.20;10.53;;;;;;;5.56;87.82;100060.78;5037906;28;20213;-73
2022/01/18 11:58:28;;;;;;;14.57;9.10;;;;;;;5.59;86.30;100063.97;5037901;28;20285;-73
2022/01/18 12:00:57;;;;;;;12.80;9.37;;;;;;;5.62;86.61;100063.72;5038106;28;20498;-73
2022/01/18 12:03:27;;;;;;;13.43;9.33;;;;;;;5.23;86.65;100055.88;5038049;28;20201;-73
2022/01/18 12:05:56;;;;;;;15.30;9.63;;;;;;;5.42;88.00;100055.94;5038968;28;20414;-73